Exxon Mobil Aba Road Estate Heliport

NG-0013 · Rivers, 尼日利亚

罗盘
风向 的 风向 190° 直升机
风: 9 kt, 3 beaufort
0 ft 1.000 2.000 3.000 4.000 5.000
Cloud Cloud Cloud Cloud
SCT 1.100
METAR DNPO 211800Z 19009KT 9999 SCT011 32/23 Q1006 NOSIG

METAR Exxon Mobil Aba Road Estate Heliport - NG-0013

Exxon Mobil Aba Road Estate Heliport是,尼日利亚中的直升机场。 该机场位于纬度4,86782和经度7,08422。 这个机场没有ICAO代码,我们使用NG-0013作为参考。 机场在Kano FIR中。

该航空气象观测是针对Port Harcourt International Airport在2024年4月21日 19:00, 当地时间进行的。

机场观察

风向为190°,速度为9 kt。

可见度为10 km 或者更多。

有疏云,零星散落的云朵在1.100 ft的高度。 没有观察到天花板。

温度和风寒是32 °C。 热指数为37。 露点为23 °C,相对湿度为59%。 海平面上的气压为1006 hPa (QNH)。

白天

今天,太阳从06:22升起,在18:37降落。 这适用于Exxon Mobil Aba Road Estate Heliport,世界夏令时可能有所不同。 当地时间与世界标准时间之间的时差为+1 小时。 夏令时目前正在进行中。

公司介绍

我们没有关于这个机场的公司信息。

体会

到Vliegles.nl去找飞行课程,跳伞和其他飞行体验。 浏览页面,了解Exxon Mobil Aba Road Estate Heliport附近所有可用的活动。 你也可以使用搜索功能来寻找你所在地附近的特定飞行课程、跳伞或其他飞行体验。

乌云

1.100 ft SCT 疏云,零星散落的云朵

温度 & 天气

温度 32 °C
露点 23 °C
相对湿度 59%
热度指数 37 °C
Kp-index 0 (0-9)

白天

日出
06:23 (11:06)
中午
12:30
日落
18:38

小工具

你想在你的网站上有一个关于Exxon Mobil Aba Road Estate Heliport的当前航空天气(METAR)的小部件吗?

显示HTML代码
报告变更